createdAt,value
2023-05-12T00:25:52.471Z,10.88
2023-05-12T00:55:52.478Z,10.75
2023-05-12T01:25:52.465Z,10.63
2023-05-12T01:55:52.457Z,10.63
2023-05-12T02:25:52.487Z,10.56
2023-05-12T02:55:52.464Z,10.63
2023-05-12T03:25:52.465Z,10.56
2023-05-12T03:55:52.508Z,10.44
2023-05-12T04:25:52.485Z,10.63
2023-05-12T04:55:52.505Z,10.88
2023-05-12T05:25:52.511Z,11.56
2023-05-12T05:55:52.509Z,11.69
2023-05-12T06:25:52.523Z,12.25
2023-05-12T06:55:52.511Z,13.13
2023-05-12T07:25:52.528Z,13.56
2023-05-12T07:55:52.522Z,14.31
2023-05-12T08:25:52.533Z,14.56
2023-05-12T08:57:09.314Z,14.69
2023-05-12T09:25:52.530Z,14.75
2023-05-12T09:55:52.527Z,16.13
2023-05-12T10:25:52.548Z,17
2023-05-12T10:55:52.995Z,17.25
2023-05-12T11:25:52.646Z,16.06
2023-05-12T11:55:52.564Z,17.56
2023-05-12T12:25:52.592Z,17.75
2023-05-12T12:55:52.559Z,17.31
2023-05-12T13:25:52.570Z,17.19
2023-05-12T13:55:52.568Z,17.06
2023-05-12T14:25:52.578Z,17.25
2023-05-12T14:55:52.581Z,17
2023-05-12T15:25:52.593Z,16.44
2023-05-12T15:55:52.596Z,17
2023-05-12T16:25:52.592Z,17.56
2023-05-12T16:55:52.603Z,17.81
2023-05-12T17:25:52.595Z,17.25
2023-05-12T17:55:52.616Z,17.13
2023-05-12T18:25:52.604Z,16
2023-05-12T18:55:52.596Z,14.25
2023-05-12T19:25:52.634Z,13.19
2023-05-12T19:55:52.624Z,12.25
2023-05-12T20:25:52.622Z,11.63
2023-05-12T20:55:52.674Z,11.25
2023-05-12T21:25:52.635Z,10.94
2023-05-12T21:55:52.644Z,10.31
2023-05-12T22:25:52.662Z,9.81
2023-05-12T22:55:52.669Z,9.19
2023-05-12T23:25:52.673Z,9.25
2023-05-12T23:55:52.663Z,9.44
